San Vicente (176, 240) Station Data

Red Flag Warning: No
Fire Weather Zone: 250
SDGE Region: Eastern
Lat/Lon: 32.913/-116.952

Observations

Time Wind Speed/Gust Temp(F) RH Fuel Moist Fuel Temp(F) Dewpt(F) Tmax(F) Tmin(F) Accum Precip 10-min Precip SL Press(mb)
4/26 2:50am 313 2 G 3 49° 100% - - 49° 51.9° 48.3° - - 904.0
4/26 2:40am 319 1 G 3 49° 100% - - 49° 51.9° 48.6° - - 904.0
4/26 2:30am 310 2 G 3 49° 100% - - 49° 51.9° 48.6° - - 904.0
4/26 2:20am 302 2 G 3 49° 100% - - 49° 51.9° 48.6° - - 903.0
4/26 2:10am 316 1 G 3 50° 100% - - 50° 51.9° 49.1° - - 904.0
4/26 2:00am 286 1 G 4 49° 100% - - 49° 51.9° 49.1° - - 903.0
4/26 1:50am 301 2 G 4 49° 100% - - 49° 51.9° 49.1° - - 903.0
4/26 1:40am 313 2 G 3 50° 100% - - 50° 51.9° 49.7° - - 903.0
4/26 1:30am 330 1 G 2 50° 100% - - 50° 51.9° 49.9° - - 903.0
4/26 1:20am 319 1 G 3 51° 100% - - 51° 51.9° 50.2° - - 903.0
4/26 1:10am 298 2 G 4 50° 100% - - 51° 51.9° 50.2° - - 903.0
4/26 1:00am 315 2 G 4 51° 100% - - 51° 51.9° 50.2° - - 902.0
4/26 12:50am 313 1 G 2 51° 100% - - 51° 51.9° 50.5° - - 902.0
4/26 12:40am 297 3 G 4 51° 100% - - 51° 51.9° 50.5° - - 902.0
4/26 12:30am 297 2 G 4 51° 100% - - 51° 51.9° 50.5° - - 900.0
4/26 12:20am 305 1 G 2 51° 100% - - 51° 51.9° 50.8° - - 898.0
4/26 12:10am 325 2 G 3 52° 100% - - 52° 51.9° 51.1° - - 898.0
4/26 12:00am 319 2 G 3 51° 100% - - 52° 70.4° 51° - - 896.0
4/25 11:50pm 307 1 G 2 51° 93% - - 50° 70.4° 51° - - 892.0
4/25 11:40pm 310 1 G 3 52° 92% - - 50° 70.4° 51° - - 892.0
4/25 11:30pm 305 2 G 4 52° 97% - - 51° 70.4° 51° - - 894.0
4/25 11:20pm 308 2 G 3 51° 91% - - 49° 70.4° 51° - - 891.0
4/25 11:10pm 302 2 G 3 51° 87% - - 48° 70.4° 51.1° - - 890.0
4/25 11:00pm 308 2 G 4 51° 83% - - 46° 70.4° 51.1° - - 888.0
4/25 10:50pm 314 2 G 3 52° 80% - - 46° 70.4° 51.4° - - 887.0
4/25 10:40pm 316 2 G 3 52° 78% - - 45° 70.4° 51.6° - - 886.0
4/25 10:30pm 328 1 G 2 52° 77% - - 45° 70.4° 51.8° - - 886.0
4/25 10:20pm 316 1 G 2 52° 76% - - 45° 70.4° 52.1° - - 886.0
4/25 10:10pm 314 2 G 3 53° 75% - - 45° 70.4° 52.4° - - 885.0
4/25 10:00pm 306 1 G 2 53° 74% - - 45° 70.4° 53.1° - - 885.0
4/25 9:50pm 303 1 G 3 54° 73% - - 46° 70.4° 53.6° - - 885.0
4/25 9:40pm 313 2 G 4 55° 73% - - 46° 70.4° 54.3° - - 885.0
4/25 9:30pm 316 1 G 4 55° 73% - - 46° 70.4° 54.6° - - 885.0
4/25 9:20pm 306 2 G 4 55° 72% - - 46° 70.4° 54.7° - - 885.0
4/25 9:10pm 324 1 G 3 56° 70% - - 47° 70.4° 55.7° - - 884.0
4/25 9:00pm 293 0 G 1 56° 70% - - 47° 70.4° 55.9° - - 884.0
4/25 8:50pm 0 0 G 0 56° 70% - - 47° 70.4° 55.9° - - 885.0
4/25 8:40pm 306 1 G 2 56° 69% - - 46° 70.4° 55.9° - - 884.0
4/25 8:30pm 304 2 G 3 57° 68% - - 46° 70.4° 56.4° - - 884.0
4/25 8:20pm 308 1 G 2 58° 66% - - 46° 70.4° 56.9° - - 883.0
4/25 8:10pm 320 1 G 2 58° 63% - - 46° 70.4° 57.7° - - 882.0
4/25 8:00pm 331 0 G 1 59° 61% - - 46° 70.4° 57.7° - - 882.0
4/25 7:50pm 316 1 G 2 60° 60% - - 46° 70.4° 57.7° - - 882.0
4/25 7:40pm 316 2 G 3 61° 58% - - 46° 70.4° 57.7° - - 881.0
4/25 7:30pm 291 2 G 3 62° 55% - - 46° 70.4° 57.7° - - 881.0
4/25 7:20pm 263 2 G 3 62° 54% - - 45° 70.4° 57.7° - - 880.0
4/25 7:10pm 275 3 G 6 63° 53% - - 46° 70.4° 57.7° - - 880.0
4/25 7:00pm 288 3 G 6 63° 53% - - 46° 70.4° 57.7° - - 880.0
4/25 6:50pm 276 3 G 9 64° 52% - - 46° 70.4° 57.7° - - 880.0
4/25 6:40pm 299 3 G 8 64° 52% - - 46° 70.4° 57.7° - - 881.0
4/25 6:30pm 277 4 G 9 64° 52% - - 46° 70.4° 57.7° - - 881.0
4/25 6:20pm 255 4 G 9 64° 51% - - 46° 70.4° 57.7° - - 881.0
4/25 6:10pm 244 4 G 12 65° 51% - - 46° 70.4° 57.7° - - 881.0
4/25 6:00pm 291 4 G 10 65° 51% - - 47° 70.4° 57.7° - - 881.0
4/25 5:50pm 284 5 G 11 66° 50% - - 47° 70.4° 57.7° - - 881.0
4/25 5:40pm 273 5 G 10 67° 48% - - 47° 70.4° 57.7° - - 881.0
4/25 5:30pm 268 5 G 11 67° 47% - - 47° 70.4° 57.7° - - 881.0
4/25 5:20pm 277 5 G 12 67° 49% - - 48° 70.4° 57.7° - - 881.0
4/25 5:10pm 280 5 G 8 67° 50% - - 48° 70.4° 57.7° - - 882.0
4/25 5:00pm 271 4 G 8 67° 53% - - 49° 70.4° 57.7° - - 883.0
4/25 4:50pm 281 4 G 10 67° 52% - - 49° 70.4° 57.7° - - 882.0
4/25 4:40pm 303 5 G 11 68° 51% - - 49° 70.4° 57.7° - - 882.0
4/25 4:30pm 300 5 G 11 68° 50% - - 49° 70.4° 57.7° - - 882.0
4/25 4:20pm 293 5 G 10 68° 51% - - 49° 70.4° 57.7° - - 882.0
4/25 4:10pm 312 6 G 13 68° 51% - - 49° 70.4° 57.7° - - 882.0
4/25 4:00pm 260 5 G 11 68° 51% - - 50° 70.4° 57.7° - - 883.0
4/25 3:50pm 279 4 G 10 68° 51% - - 50° 70.4° 57.7° - - 883.0
4/25 3:40pm 313 7 G 12 68° 50% - - 49° 70.4° 57.7° - - 882.0
4/25 3:30pm 279 5 G 13 69° 49% - - 49° 70.4° 57.7° - - 882.0
4/25 3:20pm 266 5 G 10 68° 49% - - 49° 70.4° 57.7° - - 882.0
4/25 3:10pm 247 6 G 12 69° 49% - - 49° 70.4° 57.7° - - 882.0
4/25 3:00pm 322 5 G 11 69° 48% - - 48° 70.4° 57.7° - - 882.0
4/25 2:50pm 276 4 G 9 69° 49% - - 49° 70.4° 57.7° - - 882.0
4/25 2:40pm 271 5 G 12 69° 49% - - 49° 70.4° 57.7° - - 882.0
4/25 2:30pm 308 6 G 13 69° 50% - - 49° 70.4° 57.7° - - 882.0
4/25 2:20pm 290 6 G 11 69° 49% - - 49° 70.4° 57.7° - - 882.0
4/25 2:10pm 306 6 G 12 68° 51% - - 49° 70.4° 57.7° - - 883.0
4/25 2:00pm 304 5 G 11 68° 51% - - 50° 70.4° 57.7° - - 883.0
4/25 1:50pm 292 5 G 12 68° 51% - - 49° 70.4° 57.7° - - 883.0
4/25 1:40pm 254 5 G 11 68° 51% - - 49° 70.4° 57.7° - - 883.0
4/25 1:30pm 232 5 G 11 69° 49% - - 49° 70.4° 57.7° - - 882.0
4/25 1:20pm 223 5 G 9 69° 48% - - 48° 70.4° 57.7° - - 882.0
4/25 1:10pm 243 4 G 9 70° 48% - - 49° 70.4° 57.7° - - 882.0
4/25 1:00pm 279 5 G 11 68° 50% - - 49° 69.8° 57.7° - - 883.0
4/25 12:50pm 221 5 G 11 68° 50% - - 49° 69.8° 57.7° - - 883.0
4/25 12:40pm 217 4 G 9 69° 49% - - 49° 69.8° 57.7° - - 882.0
4/25 12:30pm 246 5 G 13 69° 51% - - 49° 69.6° 57.7° - - 883.0
4/25 12:20pm 220 5 G 11 68° 52% - - 49° 69.6° 57.7° - - 883.0
4/25 12:10pm 223 6 G 12 68° 50% - - 49° 69.6° 57.7° - - 883.0
4/25 12:00pm 274 3 G 11 69° 48% - - 48° 69.6° 57.7° - - 882.0
4/25 11:50am 219 5 G 12 68° 50% - - 49° 68.8° 57.7° - - 882.0
4/25 11:40am 40 3 G 11 68° 50% - - 48° 68.4° 57.7° - - 882.0
4/25 11:30am 333 4 G 11 68° 50% - - 49° 68.4° 57.7° - - 882.0
4/25 11:20am 268 3 G 8 67° 51% - - 48° 67.8° 57.7° - - 882.0
4/25 11:10am 222 2 G 6 66° 54% - - 49° 67.5° 57.7° - - 883.0
4/25 11:00am 103 3 G 7 67° 54% - - 50° 67.5° 57.7° - - 883.0
4/25 10:50am 133 4 G 9 65° 58% - - 50° 66.6° 57.7° - - 884.0
4/25 10:40am 208 4 G 11 65° 59% - - 50° 66.6° 57.7° - - 885.0
4/25 10:30am 170 3 G 7 66° 54% - - 49° 66.6° 57.7° - - 882.0
4/25 10:20am 154 3 G 7 65° 58% - - 50° 65.5° 57.7° - - 883.0
4/25 10:10am 203 3 G 7 63° 63% - - 50° 64.1° 57.7° - - 885.0
4/25 10:00am 219 3 G 7 64° 63% - - 51° 64.1° 57.7° - - 885.0
4/25 9:50am 184 3 G 7 63° 63% - - 51° 64.1° 57.7° - - 885.0
4/25 9:40am 139 4 G 8 63° 66% - - 52° 64.1° 57.7° - - 886.0
4/25 9:30am 136 5 G 8 62° 68% - - 52° 62.3° 57.7° - - 886.0
4/25 9:20am 141 3 G 8 61° 70% - - 52° 62.3° 57.7° - - 887.0
4/25 9:10am 170 4 G 8 61° 71% - - 52° 62.1° 57.7° - - 887.0
4/25 9:00am 168 3 G 7 62° 71% - - 52° 62.1° 57.7° - - 887.0
4/25 8:50am 160 4 G 8 61° 73% - - 52° 61.4° 57.7° - - 888.0
4/25 8:40am 180 3 G 7 61° 74% - - 52° 60.9° 57.7° - - 887.0
4/25 8:30am 174 2 G 6 60° 75% - - 52° 60.6° 57.7° - - 888.0
4/25 8:20am 121 2 G 7 60° 77% - - 53° 60.6° 57.7° - - 888.0
4/25 8:10am 151 3 G 5 60° 78% - - 53° 60° 57.7° - - 889.0
4/25 8:00am 164 2 G 4 59° 80% - - 53° 59.4° 57.7° - - 889.0
4/25 7:50am 164 2 G 4 59° 80% - - 53° 59.2° 57.7° - - 889.0
4/25 7:40am 147 3 G 6 59° 81% - - 53° 59.2° 57.7° - - 890.0
4/25 7:30am 144 3 G 6 59° 83% - - 53° 59.2° 57.7° - - 890.0
4/25 7:20am 155 4 G 7 58° 84% - - 54° 59.2° 57.7° - - 891.0
4/25 7:10am 160 1 G 4 58° 87% - - 55° 59.2° 57.7° - - 892.0
4/25 7:00am 167 1 G 3 58° 91% - - 56° 59.2° 57.7° - - 894.0
4/25 6:50am 158 2 G 5 58° 91% - - 55° 59.2° 57.7° - - 893.0
4/25 6:40am 163 3 G 8 58° 89% - - 55° 59.2° 57.8° - - 893.0
4/25 6:30am 180 4 G 8 58° 88% - - 55° 59.2° 57.8° - - 892.0
4/25 6:20am 166 2 G 4 58° 87% - - 54° 59.2° 57.8° - - 892.0
4/25 6:10am 171 2 G 5 58° 88% - - 55° 59.2° 57.8° - - 892.0
4/25 6:00am 178 2 G 5 58° 88% - - 55° 59.2° 57.8° - - 892.0
4/25 5:50am 164 3 G 7 58° 87% - - 54° 59.2° 58° - - 892.0
4/25 5:40am 148 3 G 8 58° 86% - - 54° 59.2° 58.1° - - 891.0
4/25 5:30am 178 3 G 7 58° 84% - - 53° 59.2° 58.1° - - 891.0
4/25 5:20am 159 3 G 8 58° 81% - - 53° 59.2° 58.1° - - 889.0
4/25 5:10am 176 3 G 6 58° 80% - - 52° 59.2° 58.1° - - 889.0
4/25 5:00am 157 4 G 9 59° 80% - - 52° 59.2° 58.1° - - 889.0
4/25 4:50am 149 4 G 8 59° 77% - - 52° 59.2° 58.1° - - 888.0
4/25 4:40am 143 2 G 6 59° 76% - - 51° 59.2° 58.1° - - 887.0
4/25 4:30am 148 4 G 7 59° 75% - - 51° 59.2° 58.1° - - 887.0
4/25 4:20am 139 4 G 7 59° 75% - - 51° 59.2° 58.1° - - 887.0
4/25 4:10am 154 3 G 6 59° 75% - - 51° 59.2° 58.1° - - 887.0
4/25 4:00am 140 4 G 8 59° 75% - - 51° 59.2° 58.1° - - 887.0
4/25 3:50am 150 4 G 8 59° 75% - - 51° 59.2° 58.1° - - 887.0
4/25 3:40am 148 4 G 8 59° 75% - - 51° 59.2° 58.1° - - 887.0
4/25 3:30am 147 4 G 8 59° 75% - - 51° 59.2° 58.1° - - 887.0
4/25 3:20am 159 2 G 4 59° 76% - - 51° 59.2° 58.1° - - 887.0
4/25 3:10am 150 2 G 4 58° 76% - - 51° 59.2° 58.1° - - 887.0
4/25 3:00am 159 2 G 4 58° 76% - - 51° 59.2° 58.1° - - 887.0
4/25 2:50am 167 3 G 6 58° 76% - - 51° 59.2° 58.1° - - 887.0
4/25 2:40am 159 3 G 8 58° 76% - - 51° 59.2° 58.1° - - 887.0
4/25 2:30am 152 3 G 8 59° 76% - - 51° 59.2° 58.1° - - 887.0
4/25 2:20am 175 2 G 7 59° 75% - - 51° 59.2° 58.1° - - 887.0
4/25 2:10am 162 3 G 7 59° 75% - - 51° 59.2° 58.1° - - 887.0
4/25 2:00am 161 4 G 9 59° 77% - - 51° 59.2° 58.1° - - 888.0
4/25 1:50am 160 2 G 5 59° 80% - - 52° 59.2° 58.1° - - 889.0
4/25 1:40am 139 5 G 9 59° 81% - - 53° 59.2° 58.1° - - 890.0
4/25 1:30am 162 5 G 11 59° 78% - - 52° 59.2° 58.1° - - 888.0
4/25 1:20am 187 2 G 5 59° 75% - - 51° 59.2° 58.1° - - 887.0
4/25 1:10am 175 4 G 6 59° 75% - - 51° 59.2° 58.1° - - 887.0
4/25 1:00am 150 3 G 7 59° 75% - - 51° 59.2° 58.1° - - 887.0
4/25 12:50am 164 4 G 7 59° 74% - - 51° 59.2° 58.1° - - 887.0
4/25 12:40am 170 2 G 6 59° 74% - - 51° 59.1° 58.1° - - 887.0
4/25 12:30am 149 1 G 4 59° 75% - - 51° 58.9° 58.1° - - 887.0
4/25 12:20am 176 1 G 4 58° 75% - - 51° 58.7° 58.1° - - 887.0
4/25 12:10am 135 3 G 10 58° 76% - - 51° 58.6° 58.1° - - 887.0
4/25 12:00am 168 4 G 10 59° 77% - - 51° 72.7° 58° - - 888.0
4/24 11:50pm 147 3 G 9 59° 78% - - 52° 72.7° 58° - - 889.0
4/24 11:40pm 211 2 G 5 59° 78% - - 52° 72.7° 58° - - 888.0
4/24 11:30pm 229 3 G 7 59° 76% - - 52° 72.7° 58° - - 888.0
4/24 11:20pm 190 2 G 7 60° 74% - - 51° 72.7° 58° - - 887.0
4/24 11:10pm 152 2 G 6 60° 74% - - 51° 72.7° 58° - - 887.0
4/24 11:00pm 164 3 G 7 59° 74% - - 51° 72.7° 58° - - 887.0
4/24 10:50pm 183 2 G 5 59° 74% - - 51° 72.7° 58° - - 887.0
4/24 10:40pm 176 2 G 4 59° 74% - - 51° 72.7° 58° - - 887.0
4/24 10:30pm 160 2 G 4 59° 73% - - 51° 72.7° 58° - - 887.0
4/24 10:20pm 167 2 G 6 59° 73% - - 51° 72.7° 58° - - 886.0
4/24 10:10pm 164 3 G 6 59° 73% - - 51° 72.7° 58° - - 887.0
4/24 10:00pm 151 2 G 5 59° 74% - - 51° 72.7° 58° - - 887.0
4/24 9:50pm 145 2 G 4 59° 75% - - 51° 72.7° 58° - - 887.0
4/24 9:40pm 147 1 G 4 59° 76% - - 51° 72.7° 58° - - 888.0
4/24 9:30pm 251 2 G 6 59° 75% - - 51° 72.7° 58° - - 888.0
4/24 9:20pm 236 4 G 8 59° 75% - - 52° 72.7° 58° - - 887.0
4/24 9:10pm 227 4 G 8 60° 75% - - 52° 72.7° 58° - - 887.0
4/24 9:00pm 225 3 G 7 60° 74% - - 52° 72.7° 58° - - 887.0
4/24 8:50pm 234 2 G 5 60° 75% - - 52° 72.7° 58° - - 888.0
4/24 8:40pm 272 3 G 6 61° 75% - - 53° 72.7° 58° - - 888.0
4/24 8:30pm 252 2 G 5 61° 75% - - 52° 72.7° 58° - - 888.0
4/24 8:20pm 244 2 G 6 60° 73% - - 52° 72.7° 58° - - 887.0
4/24 8:10pm 293 1 G 3 60° 72% - - 51° 72.7° 58° - - 887.0
4/24 8:00pm 290 2 G 4 60° 71% - - 51° 72.7° 58° - - 887.0
4/24 7:50pm 258 2 G 5 61° 70% - - 51° 72.7° 58° - - 886.0
4/24 7:40pm 264 2 G 6 61° 70% - - 51° 72.7° 58° - - 886.0
4/24 7:30pm 243 2 G 6 61° 70% - - 51° 72.7° 58° - - 886.0
4/24 7:20pm 253 2 G 5 62° 69% - - 51° 72.7° 58° - - 887.0
4/24 7:10pm 244 3 G 6 62° 69% - - 52° 72.7° 58° - - 887.0
4/24 7:00pm 245 3 G 6 62° 69% - - 52° 72.7° 58° - - 887.0
4/24 6:50pm 258 3 G 6 62° 69% - - 52° 72.7° 58° - - 887.0
4/24 6:40pm 253 3 G 7 63° 68% - - 52° 72.7° 58° - - 887.0
4/24 6:30pm 242 4 G 8 63° 67% - - 52° 72.7° 58° - - 887.0
4/24 6:20pm 239 3 G 7 64° 65% - - 52° 72.7° 58° - - 887.0
4/24 6:10pm 234 3 G 10 65° 64% - - 52° 72.7° 58° - - 887.0
4/24 6:00pm 265 3 G 7 65° 63% - - 52° 72.7° 58° - - 887.0